createdAt,value
2022-09-11T00:01:47.362Z,11.55
2022-09-11T00:04:14.296Z,11.55
2022-09-11T00:06:41.389Z,11.45
2022-09-11T00:09:08.643Z,10.70
2022-09-11T00:11:40.533Z,10.27
2022-09-11T00:14:08.450Z,10.75
2022-09-11T00:16:37.253Z,13.02
2022-09-11T00:19:06.258Z,9.23
2022-09-11T00:21:33.353Z,10.43
2022-09-11T00:24:00.350Z,10.82
2022-09-11T00:26:27.973Z,9.82
2022-09-11T00:28:55.437Z,10.80
2022-09-11T00:31:23.851Z,10.23
2022-09-11T00:33:52.193Z,9.63
2022-09-11T00:36:21.214Z,9.48
2022-09-11T00:38:49.741Z,11.98
2022-09-11T00:41:18.589Z,13.35
2022-09-11T00:43:51.623Z,11.80
2022-09-11T00:46:19.469Z,10.73
2022-09-11T00:48:50.062Z,11.13
2022-09-11T00:51:25.189Z,11.68
2022-09-11T00:53:54.476Z,11.93
2022-09-11T00:56:22.857Z,13.38
2022-09-11T00:58:52.660Z,12.73
2022-09-11T01:01:19.811Z,13.43
2022-09-11T01:03:47.324Z,9.80
2022-09-11T01:06:14.791Z,11.57
2022-09-11T01:08:41.821Z,9.55
2022-09-11T01:11:24.804Z,9.50
2022-09-11T01:14:00.671Z,9.75
2022-09-11T01:16:53.684Z,10.63
2022-09-11T01:19:29.118Z,12.48
2022-09-11T01:22:08.122Z,15.15
2022-09-11T01:24:54.216Z,13.27
2022-09-11T01:27:36.619Z,13.25
2022-09-11T01:30:10.912Z,13.15
2022-09-11T01:32:45.050Z,13.85
2022-09-11T01:35:20.632Z,11.70
2022-09-11T01:37:57.630Z,15.05
2022-09-11T01:40:26.839Z,15.23
2022-09-11T01:42:57.922Z,13.30
2022-09-11T01:45:26.635Z,16.75
2022-09-11T01:47:54.548Z,14.40
2022-09-11T01:50:24.183Z,14.77
2022-09-11T01:52:54.316Z,15.20
2022-09-11T01:55:24.238Z,16.05
2022-09-11T01:58:08.162Z,14.90
2022-09-11T02:00:39.146Z,13.52
2022-09-11T02:03:11.965Z,12.32
2022-09-11T02:05:44.045Z,11.63
2022-09-11T02:08:13.935Z,14.52
2022-09-11T02:10:43.337Z,12.52
2022-09-11T02:13:23.197Z,10.00
2022-09-11T02:15:55.898Z,13.32
2022-09-11T02:18:26.961Z,10.15
2022-09-11T02:20:53.859Z,12.45
2022-09-11T02:23:20.942Z,11.40
2022-09-11T02:25:48.284Z,11.38
2022-09-11T02:28:15.112Z,10.10
2022-09-11T02:30:42.928Z,12.15
2022-09-11T02:33:45.094Z,11.73
2022-09-11T02:36:18.072Z,10.35
2022-09-11T02:39:00.614Z,11.30
2022-09-11T02:41:29.377Z,12.82
2022-09-11T02:43:56.222Z,10.20
2022-09-11T02:46:34.715Z,10.73
2022-09-11T02:49:07.949Z,11.68
2022-09-11T02:51:50.453Z,9.93
2022-09-11T02:54:24.959Z,10.85
2022-09-11T02:56:51.795Z,10.90
2022-09-11T02:59:19.165Z,10.60
2022-09-11T03:01:47.172Z,12.60
2022-09-11T03:04:15.603Z,10.10
2022-09-11T03:06:43.233Z,8.70
2022-09-11T03:09:10.194Z,10.50
2022-09-11T03:11:37.040Z,9.25
2022-09-11T03:14:03.880Z,10.48
2022-09-11T03:16:30.683Z,9.15
2022-09-11T03:18:57.736Z,9.35
2022-09-11T03:21:24.578Z,11.10
2022-09-11T03:23:51.371Z,9.20
2022-09-11T03:26:18.176Z,9.52
2022-09-11T03:28:46.421Z,11.07
2022-09-11T03:31:14.006Z,9.43
2022-09-11T03:33:41.028Z,8.73
2022-09-11T03:36:09.455Z,9.18
2022-09-11T03:38:36.662Z,9.55
2022-09-11T03:41:03.941Z,9.15
2022-09-11T03:43:31.130Z,11.48
2022-09-11T03:45:57.982Z,9.90
2022-09-11T03:48:25.380Z,10.82
2022-09-11T03:50:52.575Z,9.95
2022-09-11T03:53:19.424Z,11.23
2022-09-11T03:55:46.467Z,11.70
2022-09-11T03:58:14.198Z,11.00
2022-09-11T04:00:43.026Z,9.23
2022-09-11T04:03:10.649Z,13.38
2022-09-11T04:05:38.227Z,12.57
2022-09-11T04:08:06.216Z,10.18
2022-09-11T04:10:33.910Z,12.23
2022-09-11T04:13:01.709Z,12.68
2022-09-11T04:15:28.660Z,13.27
2022-09-11T04:17:55.497Z,13.27
2022-09-11T04:20:22.647Z,14.20
2022-09-11T04:22:49.948Z,19.20
2022-09-11T04:25:17.109Z,14.32
2022-09-11T04:27:44.089Z,19.70
2022-09-11T04:30:11.132Z,18.30
2022-09-11T04:32:38.031Z,21.20
2022-09-11T04:35:05.236Z,20.17
2022-09-11T04:37:32.083Z,15.52
2022-09-11T04:39:59.029Z,19.13
2022-09-11T04:42:26.458Z,21.98
2022-09-11T04:44:53.229Z,20.20
2022-09-11T04:47:20.895Z,18.95
2022-09-11T04:49:48.658Z,22.83
2022-09-11T04:52:15.469Z,19.67
2022-09-11T04:54:42.315Z,18.50
2022-09-11T04:57:09.257Z,23.02
2022-09-11T04:59:36.082Z,22.42
2022-09-11T05:02:03.683Z,20.73
2022-09-11T05:04:31.464Z,21.42
2022-09-11T05:06:58.260Z,30.17
2022-09-11T05:09:25.798Z,33.15
2022-09-11T05:11:52.659Z,20.83
2022-09-11T05:14:19.546Z,28.73
2022-09-11T05:16:46.541Z,23.05
2022-09-11T05:19:13.369Z,22.30
2022-09-11T05:21:40.217Z,19.40
2022-09-11T05:24:07.067Z,21.20
2022-09-11T05:26:35.496Z,23.95
2022-09-11T05:29:23.397Z,29.83
2022-09-11T05:31:50.232Z,30.33
2022-09-11T05:34:17.197Z,19.25
2022-09-11T05:36:44.013Z,24.08
2022-09-11T05:39:10.776Z,28.40
2022-09-11T05:41:37.578Z,24.75
2022-09-11T05:44:04.474Z,20.38
2022-09-11T05:46:31.337Z,25.00
2022-09-11T05:48:59.207Z,23.85
2022-09-11T05:51:26.068Z,22.95
2022-09-11T05:53:53.861Z,20.92
2022-09-11T05:56:22.477Z,16.02
2022-09-11T05:58:51.764Z,21.23
2022-09-11T06:01:19.602Z,22.75
2022-09-11T06:03:49.751Z,15.82
2022-09-11T06:06:17.548Z,25.77
2022-09-11T06:08:44.501Z,13.90
2022-09-11T06:11:13.249Z,17.65
2022-09-11T06:13:44.770Z,12.43
2022-09-11T06:16:17.802Z,15.55
2022-09-11T06:18:49.587Z,16.20
2022-09-11T06:23:47.821Z,15.30
2022-09-11T06:26:15.424Z,24.92
2022-09-11T06:28:42.233Z,21.42
2022-09-11T06:31:13.095Z,22.80
2022-09-11T06:33:41.049Z,18.73
2022-09-11T06:36:10.794Z,16.38
2022-09-11T06:38:38.477Z,14.27
2022-09-11T06:41:06.210Z,21.02
2022-09-11T06:43:33.228Z,22.80
2022-09-11T06:46:04.273Z,21.23
2022-09-11T06:48:31.114Z,17.60
2022-09-11T06:51:02.001Z,18.15
2022-09-11T06:53:28.782Z,21.00
2022-09-11T06:56:02.405Z,25.77
2022-09-11T06:58:29.533Z,22.17
2022-09-11T07:01:06.083Z,22.20
2022-09-11T07:03:33.206Z,20.75
2022-09-11T07:06:00.590Z,17.48
2022-09-11T07:08:27.659Z,25.67
2022-09-11T07:10:54.564Z,21.27
2022-09-11T07:13:24.285Z,18.45
2022-09-11T07:15:59.567Z,28.42
2022-09-11T07:18:26.419Z,23.23
2022-09-11T07:20:53.295Z,20.88
2022-09-11T07:23:20.231Z,21.63
2022-09-11T07:25:48.476Z,27.60
2022-09-11T07:28:15.426Z,19.83
2022-09-11T07:30:42.343Z,25.98
2022-09-11T07:33:09.374Z,23.95
2022-09-11T07:35:36.687Z,21.85
2022-09-11T07:38:03.706Z,20.85
2022-09-11T07:40:31.369Z,23.00
2022-09-11T07:42:58.182Z,26.75
2022-09-11T07:45:25.067Z,20.88
2022-09-11T07:47:51.862Z,27.38
2022-09-11T07:50:18.791Z,25.55
2022-09-11T07:52:45.695Z,25.38
2022-09-11T07:55:12.941Z,32.47
2022-09-11T07:57:39.750Z,30.33
2022-09-11T08:00:07.416Z,29.40
2022-09-11T08:02:34.281Z,24.25
2022-09-11T08:05:02.436Z,28.90
2022-09-11T08:07:31.100Z,36.97
2022-09-11T08:10:23.292Z,34.97
2022-09-11T08:12:47.889Z,29.15
2022-09-11T08:15:14.789Z,29.42
2022-09-11T08:17:41.604Z,30.85
2022-09-11T08:20:09.598Z,29.67
2022-09-11T08:22:36.493Z,33.25
2022-09-11T08:25:03.432Z,32.38
2022-09-11T08:27:31.184Z,30.95
2022-09-11T08:29:57.987Z,33.30
2022-09-11T08:32:24.765Z,31.85
2022-09-11T08:34:51.767Z,34.60
2022-09-11T08:37:20.831Z,27.17
2022-09-11T08:39:47.976Z,29.42
2022-09-11T08:42:16.833Z,31.65
2022-09-11T08:44:52.714Z,30.58
2022-09-11T08:47:25.156Z,27.73
2022-09-11T08:49:55.338Z,25.65
2022-09-11T08:52:27.268Z,22.55
2022-09-11T08:54:56.499Z,26.20
2022-09-11T08:57:28.385Z,24.42
2022-09-11T09:00:19.568Z,23.00
2022-09-11T09:02:46.930Z,22.15
2022-09-11T09:05:28.757Z,19.30
2022-09-11T09:08:20.564Z,20.75
2022-09-11T09:10:55.041Z,21.83
2022-09-11T09:13:33.229Z,22.50
2022-09-11T09:16:10.002Z,24.02
2022-09-11T09:18:41.068Z,30.42
2022-09-11T09:21:21.364Z,28.40
2022-09-11T09:23:55.017Z,30.40
2022-09-11T09:26:24.301Z,33.30
2022-09-11T09:28:55.869Z,32.10
2022-09-11T09:31:25.508Z,29.48
2022-09-11T09:33:57.945Z,30.88
2022-09-11T09:36:34.247Z,26.95
2022-09-11T09:39:05.310Z,32.10
2022-09-11T09:41:53.237Z,27.92
2022-09-11T09:44:24.093Z,25.90
2022-09-11T09:46:56.382Z,26.35
2022-09-11T09:49:27.725Z,24.77
2022-09-11T09:52:02.225Z,26.77
2022-09-11T09:54:36.472Z,28.08
2022-09-11T09:57:10.371Z,23.95
2022-09-11T09:59:41.008Z,25.90
2022-09-11T10:02:07.880Z,21.67
2022-09-11T10:04:37.445Z,23.63
2022-09-11T10:07:13.104Z,19.73
2022-09-11T10:09:51.672Z,20.02
2022-09-11T10:12:24.098Z,19.38
2022-09-11T10:15:00.112Z,19.08
2022-09-11T10:17:32.531Z,15.82
2022-09-11T10:20:14.528Z,15.52
2022-09-11T10:22:41.477Z,17.20
2022-09-11T10:25:27.524Z,16.05
2022-09-11T10:28:06.062Z,14.85
2022-09-11T10:30:34.597Z,17.67
2022-09-11T10:33:06.619Z,15.90
2022-09-11T10:35:35.715Z,15.40
2022-09-11T10:38:16.477Z,15.73
2022-09-11T10:40:53.897Z,13.38
2022-09-11T10:46:05.394Z,13.82
2022-09-11T10:48:33.501Z,11.38
2022-09-11T10:51:07.469Z,11.13
2022-09-11T10:53:37.989Z,12.93
2022-09-11T10:56:06.097Z,10.02
2022-09-11T10:58:39.214Z,16.40
2022-09-11T11:01:06.143Z,11.23
2022-09-11T11:03:33.211Z,11.90
2022-09-11T11:06:06.507Z,10.82
2022-09-11T11:08:33.425Z,13.20
2022-09-11T11:11:17.361Z,11.63
2022-09-11T11:13:59.295Z,11.80
2022-09-11T11:16:41.619Z,10.88
2022-09-11T11:19:11.285Z,10.32
2022-09-11T11:21:56.710Z,8.75
2022-09-11T11:24:38.764Z,10.35
2022-09-11T11:27:17.735Z,9.02
2022-09-11T11:29:47.331Z,10.65
2022-09-11T11:32:14.160Z,6.95
2022-09-11T11:35:01.686Z,9.23
2022-09-11T11:37:32.469Z,6.82
2022-09-11T11:40:01.849Z,8.95
2022-09-11T11:42:35.683Z,6.93
2022-09-11T11:45:21.289Z,6.32
2022-09-11T11:47:48.916Z,10.30
2022-09-11T11:50:29.765Z,6.90
2022-09-11T11:53:10.310Z,8.48
2022-09-11T11:55:43.819Z,13.45
2022-09-11T11:58:16.625Z,8.75
2022-09-11T12:00:53.385Z,6.20
2022-09-11T12:06:27.104Z,6.63
2022-09-11T12:08:53.968Z,6.78
2022-09-11T12:11:30.075Z,6.72
2022-09-11T12:13:57.673Z,6.20
2022-09-11T12:16:34.025Z,8.70
2022-09-11T12:19:16.877Z,8.63
2022-09-11T12:21:52.896Z,7.72
2022-09-11T12:24:27.441Z,5.38
2022-09-11T12:27:13.173Z,7.25
2022-09-11T12:29:54.277Z,7.68
2022-09-11T12:32:26.571Z,6.22
2022-09-11T12:34:59.078Z,6.85
2022-09-11T12:37:33.235Z,6.68
2022-09-11T12:40:23.333Z,5.18
2022-09-11T12:42:56.505Z,4.22
2022-09-11T12:45:30.127Z,5.07
2022-09-11T12:48:03.248Z,5.00
2022-09-11T12:50:30.173Z,4.53
2022-09-11T12:53:02.387Z,5.80
2022-09-11T12:55:30.027Z,4.03
2022-09-11T12:58:04.080Z,6.20
2022-09-11T13:00:39.220Z,4.32
2022-09-11T13:03:10.516Z,5.45
2022-09-11T13:05:39.870Z,5.95
2022-09-11T13:08:18.860Z,3.88
2022-09-11T13:10:47.018Z,5.32
2022-09-11T13:13:32.407Z,3.95
2022-09-11T13:15:59.307Z,5.30
2022-09-11T13:18:31.058Z,4.20
2022-09-11T13:21:21.071Z,4.50
2022-09-11T13:23:50.155Z,3.40
2022-09-11T13:26:22.588Z,5.18
2022-09-11T13:28:50.407Z,3.70
2022-09-11T13:31:22.666Z,3.75
2022-09-11T13:33:50.885Z,3.75
2022-09-11T13:36:21.723Z,4.25
2022-09-11T13:38:54.963Z,4.72
2022-09-11T13:41:28.803Z,4.78
2022-09-11T13:43:58.580Z,3.60
2022-09-11T13:46:27.173Z,5.85
2022-09-11T13:49:06.819Z,6.53
2022-09-11T13:51:37.520Z,4.00
2022-09-11T13:54:13.678Z,4.32
2022-09-11T13:56:47.414Z,4.43
2022-09-11T13:59:29.060Z,3.25
2022-09-11T14:02:03.174Z,3.42
2022-09-11T14:04:30.444Z,3.45
2022-09-11T14:06:57.406Z,7.07
2022-09-11T14:09:24.472Z,3.60
2022-09-11T14:11:52.943Z,3.25
2022-09-11T14:14:22.850Z,3.67
2022-09-11T14:17:01.449Z,4.07
2022-09-11T14:19:30.974Z,4.97
2022-09-11T14:21:58.279Z,4.57
2022-09-11T14:24:25.173Z,6.03
2022-09-11T14:26:52.135Z,3.40
2022-09-11T14:29:23.191Z,4.20
2022-09-11T14:31:53.497Z,4.53
2022-09-11T14:34:32.716Z,3.97
2022-09-11T14:37:01.975Z,4.05
2022-09-11T14:39:28.772Z,4.25
2022-09-11T14:41:56.139Z,5.88
2022-09-11T14:44:27.608Z,3.80
2022-09-11T14:46:55.186Z,4.50
2022-09-11T14:49:25.317Z,3.92
2022-09-11T14:51:58.508Z,4.10
2022-09-11T14:54:26.280Z,6.10
2022-09-11T14:56:56.362Z,4.28
2022-09-11T14:59:23.390Z,3.83
2022-09-11T15:01:51.681Z,4.10
2022-09-11T15:04:20.311Z,5.35
2022-09-11T15:06:51.450Z,6.18
2022-09-11T15:09:18.480Z,6.07
2022-09-11T15:11:47.761Z,4.22
2022-09-11T15:14:27.859Z,19.95
2022-09-11T15:17:03.313Z,8.35
2022-09-11T15:19:33.039Z,6.68
2022-09-11T15:22:00.067Z,5.85
2022-09-11T15:24:33.410Z,7.10
2022-09-11T15:27:02.284Z,4.82
2022-09-11T15:29:31.482Z,3.97
2022-09-11T15:32:01.176Z,5.05
2022-09-11T15:34:35.120Z,4.38
2022-09-11T15:37:07.261Z,4.05
2022-09-11T15:39:34.307Z,5.28
2022-09-11T15:42:06.713Z,5.22
2022-09-11T15:44:34.881Z,5.88
2022-09-11T15:47:04.246Z,4.75
2022-09-11T15:49:31.774Z,5.75
2022-09-11T15:52:00.013Z,4.72
2022-09-11T15:54:29.920Z,3.28
2022-09-11T15:56:57.279Z,3.13
2022-09-11T15:59:24.177Z,4.55
2022-09-11T16:01:55.809Z,5.15
2022-09-11T16:04:26.493Z,6.07
2022-09-11T16:06:54.401Z,3.33
2022-09-11T16:09:23.012Z,5.43
2022-09-11T16:11:50.691Z,4.13
2022-09-11T16:14:17.859Z,3.63
2022-09-11T16:16:47.158Z,4.85
2022-09-11T16:19:17.961Z,5.35
2022-09-11T16:21:44.943Z,4.55
2022-09-11T16:24:14.803Z,5.07
2022-09-11T16:26:44.370Z,3.95
2022-09-11T16:29:12.868Z,3.97
2022-09-11T16:31:41.087Z,5.88
2022-09-11T16:34:16.105Z,5.75
2022-09-11T16:36:44.485Z,4.13
2022-09-11T16:39:12.802Z,5.30
2022-09-11T16:41:40.044Z,5.32
2022-09-11T16:44:11.417Z,4.50
2022-09-11T16:46:41.810Z,4.10
2022-09-11T16:49:09.335Z,5.28
2022-09-11T16:51:40.849Z,4.22
2022-09-11T16:54:07.815Z,3.97
2022-09-11T16:56:34.705Z,3.67
2022-09-11T16:59:05.450Z,3.65
2022-09-11T17:01:32.698Z,4.07
2022-09-11T17:03:59.636Z,4.78
2022-09-11T17:06:33.293Z,4.68
2022-09-11T17:09:04.342Z,4.32
2022-09-11T17:14:10.809Z,4.18
2022-09-11T17:16:38.647Z,5.68
2022-09-11T17:19:05.535Z,4.97
2022-09-11T17:21:37.873Z,12.20
2022-09-11T17:24:08.421Z,3.78
2022-09-11T17:26:36.363Z,6.88
2022-09-11T17:29:12.521Z,8.38
2022-09-11T17:31:44.858Z,4.00
2022-09-11T17:34:11.880Z,4.40
2022-09-11T17:36:40.173Z,5.38
2022-09-11T17:39:07.518Z,6.65
2022-09-11T17:41:34.360Z,3.97
2022-09-11T17:44:01.265Z,5.97
2022-09-11T17:46:29.107Z,4.07
2022-09-11T17:48:55.993Z,5.82
2022-09-11T17:51:25.347Z,6.03
2022-09-11T17:53:56.231Z,5.25
2022-09-11T17:56:31.253Z,4.60
2022-09-11T17:58:59.663Z,4.68
2022-09-11T18:01:27.592Z,4.90
2022-09-11T18:03:57.563Z,6.78
2022-09-11T18:06:25.931Z,5.47
2022-09-11T18:08:54.622Z,4.57
2022-09-11T18:11:21.589Z,6.03
2022-09-11T18:13:48.381Z,7.30
2022-09-11T18:16:15.705Z,5.38
2022-09-11T18:18:42.957Z,8.00
2022-09-11T18:21:10.813Z,5.75
2022-09-11T18:23:45.334Z,5.80
2022-09-11T18:26:29.744Z,5.57
2022-09-11T18:29:05.153Z,7.43
2022-09-11T18:31:33.150Z,4.82
2022-09-11T18:34:01.974Z,6.20
2022-09-11T18:36:29.930Z,5.65
2022-09-11T18:38:59.918Z,5.40
2022-09-11T18:41:27.636Z,4.78
2022-09-11T18:43:54.840Z,3.92
2022-09-11T18:46:22.283Z,4.60
2022-09-11T18:48:50.591Z,4.57
2022-09-11T18:51:20.459Z,5.53
2022-09-11T18:53:48.526Z,5.63
2022-09-11T18:56:15.655Z,5.65
2022-09-11T18:58:42.871Z,6.63
2022-09-11T19:01:11.553Z,5.80
2022-09-11T19:03:42.303Z,5.65
2022-09-11T19:06:11.018Z,6.50
2022-09-11T19:08:42.860Z,6.78
2022-09-11T19:11:11.569Z,6.93
2022-09-11T19:13:39.002Z,4.65
2022-09-11T19:16:07.046Z,5.05
2022-09-11T19:18:34.739Z,8.27
2022-09-11T19:21:03.987Z,6.35
2022-09-11T19:23:36.134Z,5.47
2022-09-11T19:26:03.807Z,7.07
2022-09-11T19:28:34.340Z,6.72
2022-09-11T19:31:01.846Z,6.90
2022-09-11T19:33:29.826Z,9.00
2022-09-11T19:36:00.417Z,9.38
2022-09-11T19:38:29.959Z,8.13
2022-09-11T19:41:00.411Z,10.82
2022-09-11T19:43:31.234Z,10.48
2022-09-11T19:46:02.992Z,9.75
2022-09-11T19:48:32.946Z,9.75
2022-09-11T19:51:04.375Z,9.77
2022-09-11T19:53:34.223Z,10.48
2022-09-11T19:56:04.781Z,9.10
2022-09-11T19:58:32.123Z,7.53
2022-09-11T20:01:00.425Z,10.77
2022-09-11T20:03:27.528Z,10.77
2022-09-11T20:05:54.527Z,11.57
2022-09-11T20:08:30.807Z,12.57
2022-09-11T20:11:00.478Z,10.27
2022-09-11T20:13:28.024Z,10.00
2022-09-11T20:15:54.869Z,10.68
2022-09-11T20:18:21.722Z,9.70
2022-09-11T20:20:49.179Z,9.75
2022-09-11T20:23:19.307Z,11.65
2022-09-11T20:25:46.511Z,11.27
2022-09-11T20:28:14.277Z,12.40
2022-09-11T20:30:43.900Z,10.98
2022-09-11T20:33:13.973Z,10.57
2022-09-11T20:35:40.833Z,11.25
2022-09-11T20:38:08.243Z,10.82
2022-09-11T20:40:36.795Z,8.23
2022-09-11T20:43:03.846Z,8.52
2022-09-11T20:45:30.844Z,10.02
2022-09-11T20:47:57.718Z,9.32
2022-09-11T20:50:24.579Z,9.68
2022-09-11T20:52:51.402Z,9.65
2022-09-11T20:55:18.327Z,9.48
2022-09-11T20:57:45.160Z,11.20
2022-09-11T21:00:12.429Z,10.13
2022-09-11T21:02:39.508Z,10.60
2022-09-11T21:05:09.225Z,10.93
2022-09-11T21:07:36.219Z,11.80
2022-09-11T21:10:03.391Z,13.23
2022-09-11T21:12:30.368Z,15.15
2022-09-11T21:14:57.663Z,14.60
2022-09-11T21:17:27.357Z,13.43
2022-09-11T21:19:58.078Z,14.48
2022-09-11T21:22:29.924Z,11.77
2022-09-11T21:24:56.724Z,10.05
2022-09-11T21:27:26.401Z,12.18
2022-09-11T21:29:55.338Z,10.90
2022-09-11T21:32:22.288Z,12.38
2022-09-11T21:34:49.807Z,12.48
2022-09-11T21:37:16.891Z,16.95
2022-09-11T21:39:47.844Z,16.73
2022-09-11T21:42:14.791Z,15.73
2022-09-11T21:44:41.678Z,14.50
2022-09-11T21:47:08.476Z,14.93
2022-09-11T21:49:35.329Z,15.27
2022-09-11T21:52:02.923Z,12.05
2022-09-11T21:54:33.002Z,14.43
2022-09-11T21:56:59.907Z,11.23
2022-09-11T21:59:27.016Z,14.05
2022-09-11T22:01:53.968Z,11.48
2022-09-11T22:04:21.228Z,13.00
2022-09-11T22:06:50.462Z,13.85
2022-09-11T22:09:20.744Z,13.23
2022-09-11T22:11:47.970Z,15.55
2022-09-11T22:14:19.115Z,13.57
2022-09-11T22:16:46.251Z,14.90
2022-09-11T22:19:13.091Z,15.55
2022-09-11T22:21:40.059Z,14.73
2022-09-11T22:24:09.655Z,13.77
2022-09-11T22:26:36.509Z,15.40
2022-09-11T22:29:04.284Z,16.23
2022-09-11T22:31:31.175Z,12.75
2022-09-11T22:33:58.128Z,15.18
2022-09-11T22:36:26.715Z,13.50
2022-09-11T22:38:56.252Z,16.95
2022-09-11T22:41:23.440Z,14.93
2022-09-11T22:43:53.618Z,14.77
2022-09-11T22:46:20.947Z,13.82
2022-09-11T22:48:48.162Z,15.95
2022-09-11T22:51:15.293Z,15.60
2022-09-11T22:53:45.696Z,15.27
2022-09-11T22:56:14.049Z,13.93
2022-09-11T22:58:42.098Z,11.30
2022-09-11T23:01:10.479Z,13.88
2022-09-11T23:03:37.941Z,13.75
2022-09-11T23:06:26.208Z,15.20
2022-09-11T23:08:53.223Z,14.90
2022-09-11T23:11:20.602Z,12.20
2022-09-11T23:13:51.650Z,13.57
2022-09-11T23:16:20.877Z,12.65
2022-09-11T23:18:48.197Z,12.82
2022-09-11T23:21:15.095Z,14.10
2022-09-11T23:23:42.965Z,12.68
2022-09-11T23:26:13.643Z,16.25
2022-09-11T23:28:40.681Z,15.85
2022-09-11T23:31:11.520Z,17.67
2022-09-11T23:33:38.592Z,12.75
2022-09-11T23:36:06.661Z,14.75
2022-09-11T23:38:36.181Z,17.75
2022-09-11T23:41:03.368Z,13.88
2022-09-11T23:43:33.677Z,12.73
2022-09-11T23:46:00.660Z,14.90
2022-09-11T23:48:27.903Z,14.15
2022-09-11T23:50:54.891Z,14.30
2022-09-11T23:53:21.687Z,14.32
2022-09-11T23:55:49.429Z,15.38
2022-09-11T23:58:16.920Z,13.93
